Terminal Aerodrome Forecast
Issued by NWS

Home | Current Version | Previous Version | Text Only | Print | Product List | Glossary On
Versions: 1 2 3 4 5 6 7 8 9 10 11 12 13 14 15
000
FTUS42 TJSJ 310500
TAFNCM
TAF
TNCM 310533Z 3106/0106 08009KT P6SM VCSH FEW018 SCT035
     FM311430 11013KT P6SM SCT024
     FM312200 08007KT P6SM FEW019=

USA.gov is the U.S. government's official web portal to all federal, state and local government web resources and services.